createdAt,value
2022-10-31T00:01:36.945Z,129.43
2022-10-31T00:04:06.872Z,117.60
2022-10-31T00:06:35.096Z,109.20
2022-10-31T00:09:05.692Z,102.93
2022-10-31T00:11:33.984Z,96.10
2022-10-31T00:14:02.537Z,82.50
2022-10-31T00:16:31.024Z,81.47
2022-10-31T00:19:00.728Z,84.00
2022-10-31T00:21:30.923Z,77.80
2022-10-31T00:23:59.994Z,73.20
2022-10-31T00:26:29.301Z,71.20
2022-10-31T00:28:57.412Z,72.57
2022-10-31T00:31:25.590Z,69.37
2022-10-31T00:33:53.581Z,66.77
2022-10-31T00:36:22.120Z,71.40
2022-10-31T00:38:51.465Z,71.97
2022-10-31T00:41:20.011Z,58.60
2022-10-31T00:43:48.078Z,68.30
2022-10-31T00:46:16.245Z,68.10
2022-10-31T00:48:44.247Z,73.97
2022-10-31T00:51:12.706Z,67.87
2022-10-31T00:53:42.614Z,63.53
2022-10-31T00:56:12.018Z,66.77
2022-10-31T00:58:40.019Z,65.80
2022-10-31T01:01:09.033Z,66.63
2022-10-31T01:03:39.534Z,58.83
2022-10-31T01:06:14.321Z,62.33
2022-10-31T01:08:42.727Z,70.33
2022-10-31T01:11:17.355Z,65.17
2022-10-31T01:13:46.428Z,59.90
2022-10-31T01:16:16.787Z,70.80
2022-10-31T01:18:45.245Z,60.07
2022-10-31T01:21:15.606Z,59.43
2022-10-31T01:23:43.680Z,58.90
2022-10-31T01:26:18.277Z,57.50
2022-10-31T01:28:48.457Z,59.23
2022-10-31T01:31:17.999Z,59.67
2022-10-31T01:33:46.063Z,58.50
2022-10-31T01:36:19.476Z,57.50
2022-10-31T01:38:47.580Z,56.43
2022-10-31T01:41:19.885Z,56.83
2022-10-31T01:43:50.678Z,61.03
2022-10-31T01:46:22.659Z,64.70
2022-10-31T01:48:50.911Z,57.30
2022-10-31T01:51:22.397Z,56.07
2022-10-31T01:53:52.159Z,56.70
2022-10-31T01:56:21.482Z,58.07
2022-10-31T01:58:49.444Z,55.30
2022-10-31T02:01:19.794Z,59.97
2022-10-31T02:03:49.385Z,63.27
2022-10-31T02:06:26.395Z,61.27
2022-10-31T02:08:55.585Z,56.43
2022-10-31T02:11:25.583Z,59.23
2022-10-31T02:13:54.838Z,56.87
2022-10-31T02:16:24.171Z,52.60
2022-10-31T02:18:52.201Z,51.67
2022-10-31T02:21:26.229Z,58.93
2022-10-31T02:24:39.635Z,49.90
2022-10-31T02:27:23.649Z,48.33
2022-10-31T02:30:11.958Z,51.47
2022-10-31T02:33:02.506Z,49.57
2022-10-31T02:35:47.183Z,43.97
2022-10-31T02:38:27.042Z,45.43
2022-10-31T02:41:03.548Z,41.43
2022-10-31T02:43:42.407Z,42.97
2022-10-31T02:46:15.467Z,42.63
2022-10-31T02:48:47.330Z,42.70
2022-10-31T02:51:17.315Z,39.17
2022-10-31T02:53:45.278Z,34.40
2022-10-31T02:56:15.325Z,40.53
2022-10-31T02:58:48.278Z,39.73
2022-10-31T03:01:35.977Z,43.63
2022-10-31T03:04:22.453Z,42.63
2022-10-31T03:06:58.487Z,34.80
2022-10-31T03:09:34.425Z,36.50
2022-10-31T03:12:09.261Z,35.73
2022-10-31T03:14:43.184Z,34.40
2022-10-31T03:17:18.055Z,38.53
2022-10-31T03:19:51.609Z,35.47
2022-10-31T03:22:24.814Z,37.20
2022-10-31T03:24:55.710Z,35.23
2022-10-31T03:27:27.672Z,41.87
2022-10-31T03:29:59.454Z,36.70
2022-10-31T03:32:33.829Z,40.43
2022-10-31T03:35:06.046Z,40.03
2022-10-31T03:37:37.460Z,40.33
2022-10-31T03:40:08.667Z,39.83
2022-10-31T03:42:42.296Z,42.90
2022-10-31T03:45:14.992Z,43.30
2022-10-31T03:47:44.744Z,43.10
2022-10-31T03:50:17.145Z,43.10
2022-10-31T03:52:52.179Z,50.13
2022-10-31T03:55:26.135Z,49.30
2022-10-31T03:58:00.292Z,51.97
2022-10-31T04:00:29.030Z,45.93
2022-10-31T04:03:02.358Z,42.13
2022-10-31T04:05:35.466Z,46.87
2022-10-31T04:08:10.185Z,46.03
2022-10-31T04:10:40.685Z,46.80
2022-10-31T04:13:15.243Z,53.07
2022-10-31T04:15:51.723Z,48.33
2022-10-31T04:18:20.135Z,46.57
2022-10-31T04:20:51.894Z,46.87
2022-10-31T04:23:22.763Z,50.10
2022-10-31T04:25:51.767Z,55.53
2022-10-31T04:28:20.329Z,52.37
2022-10-31T04:30:49.051Z,52.60
2022-10-31T04:33:18.549Z,48.30
2022-10-31T04:35:48.649Z,48.17
2022-10-31T04:38:18.262Z,49.67
2022-10-31T04:40:48.026Z,68.77
2022-10-31T05:21:27.957Z,80.40
2022-10-31T05:24:00.826Z,96.13
2022-10-31T05:26:29.769Z,97.93
2022-10-31T05:28:57.956Z,97.20
2022-10-31T05:31:26.055Z,90.57
2022-10-31T05:33:55.284Z,97.47
2022-10-31T05:36:39.459Z,100.40
2022-10-31T05:39:13.911Z,82.33
2022-10-31T05:41:44.609Z,95.77
2022-10-31T05:44:24.499Z,97.40
2022-10-31T05:47:09.420Z,76.43
2022-10-31T05:49:56.159Z,89.80
2022-10-31T05:52:48.795Z,86.23
2022-10-31T05:55:35.123Z,84.97
2022-10-31T05:58:23.319Z,76.90
2022-10-31T06:01:00.223Z,87.57
2022-10-31T06:03:28.413Z,84.17
2022-10-31T06:06:01.782Z,88.07
2022-10-31T06:08:40.437Z,76.17
2022-10-31T06:11:14.523Z,74.20
2022-10-31T06:14:01.258Z,67.17
2022-10-31T06:16:46.700Z,78.43
2022-10-31T06:19:37.697Z,65.17
2022-10-31T06:22:06.200Z,63.27
2022-10-31T06:24:36.109Z,68.63
2022-10-31T06:27:19.549Z,71.23
2022-10-31T06:29:48.312Z,66.50
2022-10-31T06:32:24.224Z,72.17
2022-10-31T06:34:52.433Z,59.47
2022-10-31T06:37:20.437Z,70.63
2022-10-31T06:39:52.592Z,70.80
2022-10-31T06:42:20.682Z,70.17
2022-10-31T06:44:49.428Z,84.50
2022-10-31T06:48:15.641Z,82.30
2022-10-31T06:51:01.023Z,82.87
2022-10-31T06:53:30.807Z,85.50
2022-10-31T06:56:01.411Z,88.33
2022-10-31T06:58:30.998Z,87.17
2022-10-31T07:01:02.999Z,89.23
2022-10-31T07:03:31.165Z,76.23
2022-10-31T07:05:59.253Z,92.10
2022-10-31T07:08:27.437Z,89.03
2022-10-31T07:10:57.225Z,88.07
2022-10-31T07:13:27.557Z,86.07
2022-10-31T07:16:05.768Z,89.37
2022-10-31T07:18:36.203Z,88.73
2022-10-31T07:21:04.293Z,93.40
2022-10-31T07:23:33.861Z,91.13
2022-10-31T07:26:28.870Z,92.90
2022-10-31T07:28:58.238Z,92.07
2022-10-31T07:31:27.091Z,85.60
2022-10-31T07:33:59.306Z,89.13
2022-10-31T07:36:29.871Z,93.63
2022-10-31T07:39:03.358Z,84.87
2022-10-31T07:41:33.479Z,84.93
2022-10-31T07:44:02.873Z,81.10
2022-10-31T07:46:49.193Z,84.90
2022-10-31T07:49:35.604Z,80.77
2022-10-31T07:52:22.008Z,86.33
2022-10-31T07:55:16.835Z,84.83
2022-10-31T07:57:57.921Z,81.97
2022-10-31T08:00:27.728Z,82.83
2022-10-31T08:03:00.294Z,82.80
2022-10-31T08:05:58.639Z,78.73
2022-10-31T08:08:46.604Z,79.80
2022-10-31T08:11:14.564Z,80.30
2022-10-31T08:13:44.617Z,71.30
2022-10-31T08:16:17.854Z,78.87
2022-10-31T08:18:56.734Z,72.60
2022-10-31T08:21:25.377Z,73.57
2022-10-31T08:23:53.588Z,79.90
2022-10-31T08:26:24.968Z,71.37
2022-10-31T08:28:55.641Z,69.23
2022-10-31T08:31:33.157Z,60.67
2022-10-31T08:34:21.095Z,53.87
2022-10-31T08:36:54.718Z,60.07
2022-10-31T08:39:29.271Z,60.73
2022-10-31T08:41:57.367Z,57.20
2022-10-31T08:44:25.439Z,51.37
2022-10-31T08:46:55.553Z,49.40
2022-10-31T08:49:24.543Z,47.63
2022-10-31T08:51:53.251Z,50.83
2022-10-31T08:54:22.970Z,50.63
2022-10-31T08:56:55.884Z,44.60
2022-10-31T08:59:41.573Z,41.63
2022-10-31T09:02:29.554Z,46.93
2022-10-31T09:05:01.905Z,44.40
2022-10-31T09:07:30.252Z,46.17
2022-10-31T09:09:59.465Z,42.97
2022-10-31T09:12:29.271Z,43.27
2022-10-31T09:15:17.653Z,36.97
2022-10-31T09:17:51.194Z,43.40
2022-10-31T09:20:44.480Z,39.00
2022-10-31T09:23:14.823Z,40.63
2022-10-31T09:25:49.298Z,41.67
2022-10-31T09:28:36.824Z,41.80
2022-10-31T09:31:15.326Z,38.50
2022-10-31T09:33:50.802Z,35.10
2022-10-31T09:36:37.417Z,36.07
2022-10-31T09:39:08.303Z,30.57
2022-10-31T09:41:57.604Z,34.00
2022-10-31T09:44:39.593Z,33.03
2022-10-31T09:47:19.813Z,32.87
2022-10-31T09:50:15.933Z,27.30
2022-10-31T09:52:56.284Z,29.07
2022-10-31T09:55:33.123Z,27.03
2022-10-31T09:58:03.024Z,28.23
2022-10-31T10:00:33.077Z,28.20
2022-10-31T10:03:06.740Z,29.10
2022-10-31T10:05:43.063Z,27.93
2022-10-31T10:08:20.835Z,30.90
2022-10-31T10:11:10.692Z,28.07
2022-10-31T10:13:57.296Z,30.83
2022-10-31T10:16:40.051Z,27.37
2022-10-31T10:19:24.878Z,26.60
2022-10-31T10:22:03.862Z,27.43
2022-10-31T10:24:45.778Z,25.90
2022-10-31T10:27:23.884Z,26.17
2022-10-31T10:29:59.193Z,25.00
2022-10-31T10:32:31.058Z,27.53
2022-10-31T10:35:04.227Z,27.37
2022-10-31T10:37:38.050Z,28.00
2022-10-31T10:40:13.183Z,27.67
2022-10-31T10:42:58.515Z,26.63
2022-10-31T10:45:44.744Z,26.27
2022-10-31T10:48:17.768Z,25.23
2022-10-31T10:50:51.231Z,30.40
2022-10-31T10:53:36.355Z,24.20
2022-10-31T10:56:16.408Z,25.93
2022-10-31T10:58:46.231Z,29.27
2022-10-31T11:03:44.211Z,26.37
2022-10-31T11:06:22.935Z,29.83
2022-10-31T11:08:52.346Z,29.57
2022-10-31T11:11:30.565Z,29.53
2022-10-31T11:14:07.599Z,28.37
2022-10-31T11:16:41.400Z,29.40
2022-10-31T11:19:17.005Z,27.30
2022-10-31T11:21:52.618Z,28.47
2022-10-31T11:24:26.325Z,26.87
2022-10-31T11:27:04.966Z,29.90
2022-10-31T11:29:32.851Z,32.70
2022-10-31T11:32:02.709Z,28.80
2022-10-31T11:34:34.132Z,28.93
2022-10-31T11:37:11.856Z,29.43
2022-10-31T11:39:45.726Z,30.57
2022-10-31T11:42:14.107Z,28.73
2022-10-31T11:44:45.513Z,27.70
2022-10-31T11:47:17.090Z,28.77
2022-10-31T11:49:50.412Z,30.90
2022-10-31T11:52:23.999Z,29.47
2022-10-31T11:54:57.136Z,28.03
2022-10-31T11:57:29.905Z,28.23
2022-10-31T11:59:59.806Z,31.57
2022-10-31T12:02:28.449Z,31.27
2022-10-31T12:05:06.034Z,36.97
2022-10-31T12:07:34.003Z,27.53
2022-10-31T12:10:03.448Z,32.20
2022-10-31T12:12:44.465Z,30.13
2022-10-31T12:15:31.486Z,30.27
2022-10-31T12:18:19.558Z,25.40
2022-10-31T12:20:58.780Z,31.77
2022-10-31T12:23:36.658Z,28.97
2022-10-31T12:26:16.533Z,29.50
2022-10-31T12:29:02.280Z,28.97
2022-10-31T12:31:44.546Z,30.23
2022-10-31T12:34:49.396Z,27.23
2022-10-31T12:37:30.653Z,29.83
2022-10-31T12:40:25.989Z,31.53
2022-10-31T12:43:07.956Z,27.80
2022-10-31T12:45:48.169Z,29.57
2022-10-31T12:48:44.066Z,30.03
2022-10-31T12:51:21.132Z,27.20
2022-10-31T12:54:17.318Z,30.37
2022-10-31T12:56:53.878Z,26.87
2022-10-31T12:59:30.783Z,30.17
2022-10-31T13:02:04.889Z,28.97
2022-10-31T13:04:47.011Z,30.63
2022-10-31T13:07:19.662Z,25.10
2022-10-31T13:09:54.790Z,32.23
2022-10-31T13:12:24.804Z,27.60
2022-10-31T13:14:57.109Z,30.60
2022-10-31T13:17:30.690Z,62.77
2022-10-31T13:20:21.792Z,47.93
2022-10-31T13:22:53.912Z,36.73
2022-10-31T13:25:26.474Z,39.30
2022-10-31T13:27:59.039Z,35.17
2022-10-31T13:30:30.691Z,29.23
2022-10-31T13:33:03.750Z,26.53
2022-10-31T13:35:40.795Z,29.97
2022-10-31T13:38:18.803Z,29.03
2022-10-31T13:40:54.291Z,31.00
2022-10-31T13:43:31.683Z,29.93
2022-10-31T13:46:01.179Z,30.43
2022-10-31T13:48:42.184Z,32.47
2022-10-31T13:51:11.952Z,30.70
2022-10-31T13:53:46.529Z,35.57
2022-10-31T13:56:19.292Z,31.13
2022-10-31T13:59:01.319Z,33.67
2022-10-31T14:01:31.876Z,34.97
2022-10-31T14:04:13.507Z,36.63
2022-10-31T14:07:00.567Z,34.03
2022-10-31T14:09:35.099Z,35.03
2022-10-31T14:12:06.543Z,36.67
2022-10-31T14:14:48.889Z,38.20
2022-10-31T14:17:27.826Z,40.40
2022-10-31T14:20:02.437Z,41.17
2022-10-31T14:22:36.308Z,40.17
2022-10-31T14:25:26.870Z,45.03
2022-10-31T14:27:54.951Z,47.53
2022-10-31T14:30:25.483Z,49.33
2022-10-31T14:32:59.329Z,50.43
2022-10-31T14:35:48.919Z,49.20
2022-10-31T14:38:46.781Z,47.37
2022-10-31T14:41:43.735Z,45.97
2022-10-31T14:44:47.210Z,48.90
2022-10-31T14:47:23.963Z,47.30
2022-10-31T14:50:26.987Z,54.43
2022-10-31T14:52:58.305Z,47.30
2022-10-31T14:55:28.252Z,54.20
2022-10-31T14:57:59.805Z,56.33
2022-10-31T15:00:29.201Z,56.33
2022-10-31T15:03:17.299Z,55.40
2022-10-31T15:05:50.568Z,63.27
2022-10-31T15:08:31.811Z,62.07
2022-10-31T15:10:59.820Z,59.20
2022-10-31T15:13:27.837Z,56.83
2022-10-31T15:15:58.019Z,57.93
2022-10-31T15:18:28.354Z,57.47
2022-10-31T15:20:59.157Z,65.80
2022-10-31T15:23:29.363Z,60.10
2022-10-31T15:26:01.611Z,64.40
2022-10-31T15:28:30.253Z,61.57
2022-10-31T15:31:00.012Z,69.83
2022-10-31T15:33:36.566Z,67.70
2022-10-31T15:36:08.127Z,65.10
2022-10-31T15:38:56.950Z,61.50
2022-10-31T15:41:34.106Z,77.00
2022-10-31T15:44:07.378Z,62.40
2022-10-31T15:46:35.916Z,70.53
2022-10-31T15:49:03.905Z,73.63
2022-10-31T15:51:38.276Z,73.00
2022-10-31T15:54:06.373Z,81.20
2022-10-31T15:56:34.632Z,74.87
2022-10-31T16:44:54.659Z,98.63
2022-10-31T16:47:25.994Z,98.73
2022-10-31T16:50:00.821Z,101.67
2022-10-31T16:52:37.957Z,105.80
2022-10-31T16:55:14.046Z,95.57
2022-10-31T16:57:44.161Z,101.17
2022-10-31T17:00:17.562Z,103.60
2022-10-31T17:02:47.115Z,104.57
2022-10-31T17:05:16.485Z,105.33
2022-10-31T17:07:44.610Z,100.33
2022-10-31T17:10:14.239Z,102.33
2022-10-31T17:12:45.815Z,92.00
2022-10-31T17:15:20.344Z,94.57
2022-10-31T17:17:48.390Z,95.20
2022-10-31T17:20:22.514Z,98.20
2022-10-31T17:22:50.875Z,88.10
2022-10-31T17:25:20.592Z,96.07
2022-10-31T17:27:48.619Z,90.67
2022-10-31T17:30:19.142Z,97.13
2022-10-31T17:32:48.169Z,91.73
2022-10-31T17:35:17.615Z,104.90
2022-10-31T17:37:46.588Z,103.07
2022-10-31T17:40:17.694Z,86.47
2022-10-31T17:42:50.530Z,95.20
2022-10-31T17:45:20.462Z,89.00
2022-10-31T17:47:49.554Z,92.73
2022-10-31T17:50:18.069Z,85.50
2022-10-31T17:52:46.322Z,97.80
2022-10-31T17:55:14.560Z,92.77
2022-10-31T17:57:44.050Z,92.63
2022-10-31T18:00:14.849Z,88.87
2022-10-31T18:02:44.740Z,96.63
2022-10-31T18:05:13.215Z,90.27
2022-10-31T18:07:41.221Z,104.00
2022-10-31T18:10:10.645Z,96.70
2022-10-31T18:12:38.811Z,93.90
2022-10-31T18:15:07.630Z,99.10
2022-10-31T18:17:38.063Z,98.03
2022-10-31T18:20:11.506Z,107.83
2022-10-31T18:22:39.513Z,98.97
2022-10-31T18:25:08.285Z,122.83
2022-10-31T18:27:36.303Z,125.83
2022-10-31T18:30:04.600Z,119.43
2022-10-31T18:32:32.552Z,127.33
2022-10-31T18:35:00.694Z,115.07
2022-10-31T18:37:31.460Z,115.17
2022-10-31T18:39:59.378Z,116.83
2022-10-31T18:42:27.543Z,106.57
2022-10-31T18:44:55.512Z,111.33
2022-10-31T18:47:23.529Z,99.10
2022-10-31T18:49:51.743Z,89.33
2022-10-31T18:52:20.157Z,91.53
2022-10-31T18:54:49.487Z,73.13
2022-10-31T18:57:17.502Z,102.20
2022-10-31T18:59:45.461Z,72.87
2022-10-31T19:02:15.033Z,76.70
2022-10-31T19:04:43.451Z,83.07
2022-10-31T19:07:11.453Z,82.67
2022-10-31T19:09:39.457Z,85.07
2022-10-31T19:12:09.281Z,82.37
2022-10-31T19:14:37.278Z,87.10
2022-10-31T19:17:05.272Z,72.47
2022-10-31T19:19:33.325Z,67.17
2022-10-31T19:22:01.755Z,82.27
2022-10-31T19:24:29.791Z,77.27
2022-10-31T19:26:58.378Z,74.73
2022-10-31T19:29:28.237Z,79.33
2022-10-31T19:31:56.166Z,77.00
2022-10-31T19:34:24.156Z,83.17
2022-10-31T19:36:52.155Z,85.57
2022-10-31T19:39:20.102Z,75.70
2022-10-31T19:41:48.097Z,76.80
2022-10-31T19:44:16.297Z,87.33
2022-10-31T19:46:53.479Z,76.63
2022-10-31T19:49:22.041Z,72.13
2022-10-31T19:51:49.998Z,73.90
2022-10-31T19:54:18.279Z,68.40
2022-10-31T19:56:46.237Z,67.07
2022-10-31T19:59:14.223Z,69.10
2022-10-31T20:01:42.301Z,71.47
2022-10-31T20:04:11.951Z,69.97
2022-10-31T20:06:41.149Z,71.23
2022-10-31T20:09:13.446Z,85.07
2022-10-31T20:11:42.805Z,75.13
2022-10-31T20:14:13.210Z,72.43
2022-10-31T20:16:41.660Z,73.10
2022-10-31T20:19:11.388Z,74.57
2022-10-31T20:21:41.294Z,67.87
2022-10-31T20:24:12.523Z,72.57
2022-10-31T20:26:41.718Z,64.00
2022-10-31T20:29:15.731Z,75.03
2022-10-31T20:31:44.543Z,83.63
2022-10-31T20:34:13.986Z,72.77
2022-10-31T20:36:42.095Z,74.77
2022-10-31T20:39:10.722Z,86.17
2022-10-31T20:41:39.370Z,82.13
2022-10-31T20:44:07.359Z,76.57
2022-10-31T20:46:35.487Z,73.10
2022-10-31T20:49:03.702Z,74.30
2022-10-31T20:51:32.951Z,72.50
2022-10-31T20:54:01.505Z,78.87
2022-10-31T20:56:30.105Z,74.13
2022-10-31T20:58:58.731Z,85.80
2022-10-31T21:01:28.635Z,73.67
2022-10-31T21:03:56.922Z,66.83
2022-10-31T21:06:25.467Z,69.87
2022-10-31T21:08:55.132Z,64.77
2022-10-31T21:11:25.127Z,71.57
2022-10-31T21:13:53.804Z,68.00
2022-10-31T21:16:23.798Z,74.70
2022-10-31T21:18:53.030Z,75.97
2022-10-31T21:21:27.603Z,72.87
2022-10-31T21:24:03.227Z,83.63
2022-10-31T21:26:34.491Z,66.13
2022-10-31T21:29:03.539Z,78.70
2022-10-31T21:31:31.536Z,75.47
2022-10-31T21:33:59.805Z,73.43
2022-10-31T21:36:27.853Z,76.43
2022-10-31T21:38:57.020Z,78.40
2022-10-31T21:41:27.042Z,72.57
2022-10-31T21:43:56.049Z,85.53
2022-10-31T21:46:25.879Z,78.20
2022-10-31T21:48:53.897Z,85.80
2022-10-31T21:51:23.939Z,84.23
2022-10-31T21:54:10.250Z,75.57
2022-10-31T21:56:40.202Z,72.57
2022-10-31T21:59:08.302Z,76.23
2022-10-31T22:01:37.023Z,76.23
2022-10-31T22:04:05.800Z,77.97
2022-10-31T22:06:34.647Z,77.90
2022-10-31T22:09:06.126Z,72.53
2022-10-31T22:11:34.544Z,79.13
2022-10-31T22:14:04.189Z,76.60
2022-10-31T22:16:34.749Z,73.63
2022-10-31T22:19:05.526Z,75.27
2022-10-31T22:21:37.937Z,72.20
2022-10-31T22:24:07.695Z,72.30
2022-10-31T22:26:36.363Z,68.80
2022-10-31T22:29:07.419Z,67.67
2022-10-31T22:31:38.354Z,73.33
2022-10-31T22:34:06.608Z,68.20
2022-10-31T22:36:34.696Z,72.73
2022-10-31T22:39:02.629Z,71.20
2022-10-31T22:41:33.086Z,73.77
2022-10-31T22:44:01.720Z,75.03
2022-10-31T22:46:33.382Z,75.10
2022-10-31T22:49:02.856Z,67.50
2022-10-31T22:51:32.273Z,60.53
2022-10-31T22:54:00.395Z,70.67
2022-10-31T22:56:30.895Z,63.80
2022-10-31T22:58:59.373Z,68.47
2022-10-31T23:01:29.457Z,65.53
2022-10-31T23:03:59.167Z,63.30
2022-10-31T23:06:30.138Z,61.77
2022-10-31T23:08:58.721Z,59.80
2022-10-31T23:11:29.154Z,60.57
2022-10-31T23:14:09.076Z,57.87
2022-10-31T23:16:38.595Z,69.47
2022-10-31T23:19:09.245Z,59.80
2022-10-31T23:21:57.336Z,59.90
2022-10-31T23:24:32.940Z,60.50
2022-10-31T23:27:10.441Z,49.30
2022-10-31T23:29:44.350Z,61.03
2022-10-31T23:32:16.049Z,52.00
2022-10-31T23:34:45.637Z,64.47
2022-10-31T23:37:14.451Z,51.07
2022-10-31T23:39:42.530Z,56.67
2022-10-31T23:42:11.135Z,65.33
2022-10-31T23:44:39.172Z,57.97
2022-10-31T23:47:07.449Z,49.83
2022-10-31T23:49:35.629Z,49.23
2022-10-31T23:52:05.842Z,53.20
2022-10-31T23:54:34.430Z,56.43
2022-10-31T23:57:03.099Z,50.43
2022-10-31T23:59:31.882Z,57.67
